createdAt,value
2023-04-29T00:00:45.366Z,98238.38
2023-04-29T00:01:47.837Z,98228.69
2023-04-29T00:02:50.015Z,98238.69
2023-04-29T00:03:53.103Z,98238.94
2023-04-29T00:04:55.371Z,98227.66
2023-04-29T00:05:57.595Z,98226.84
2023-04-29T00:06:59.473Z,98235.75
2023-04-29T00:08:01.554Z,98231.75
2023-04-29T00:09:04.580Z,98228.25
2023-04-29T00:10:07.315Z,98233.66
2023-04-29T00:11:09.167Z,98230.47
2023-04-29T00:12:11.225Z,98237.28
2023-04-29T00:13:13.626Z,98230.25
2023-04-29T00:14:15.462Z,98237.53
2023-04-29T00:15:18.036Z,98229.44
2023-04-29T00:16:20.132Z,98228.94
2023-04-29T00:17:22.311Z,98232.75
2023-04-29T00:18:24.135Z,98231.94
2023-04-29T00:19:26.109Z,98235.75
2023-04-29T00:20:28.449Z,98226.06
2023-04-29T00:21:30.689Z,98223.66
2023-04-29T00:22:32.466Z,98225.56
2023-04-29T00:23:35.052Z,98230.97
2023-04-29T00:24:37.170Z,98230.47
2023-04-29T00:25:39.377Z,98227.75
2023-04-29T00:26:41.267Z,98230.72
2023-04-29T00:27:43.278Z,98227.53
2023-04-29T00:28:45.976Z,98228.34
2023-04-29T00:29:48.074Z,98230.53
2023-04-29T00:30:50.204Z,98230.53
2023-04-29T00:31:52.034Z,98230.84
2023-04-29T00:32:54.049Z,98227.34
2023-04-29T00:33:56.356Z,98232.75
2023-04-29T00:34:58.195Z,98231.16
2023-04-29T00:36:00.403Z,98230.66
2023-04-29T00:37:02.295Z,98227.94
2023-04-29T00:38:04.305Z,98225.25
2023-04-29T00:39:06.416Z,98225.50
2023-04-29T00:40:09.602Z,98221.50
2023-04-29T00:41:11.482Z,98228.19
2023-04-29T00:42:13.459Z,98223.09
2023-04-29T00:43:15.320Z,98228.50
2023-04-29T00:44:17.709Z,98228.78
2023-04-29T00:45:19.535Z,98224.50
2023-04-29T00:46:21.471Z,98229.09
2023-04-29T00:47:23.448Z,98229.09
2023-04-29T00:48:25.560Z,98222.91
2023-04-29T00:49:27.990Z,98222.91
2023-04-29T00:50:31.350Z,98224.00
2023-04-29T00:51:33.877Z,98225.09
2023-04-29T00:52:38.344Z,98224.81
2023-04-29T00:53:40.950Z,98227.81
2023-04-29T00:54:44.032Z,98220.81
2023-04-29T00:55:48.379Z,98231.28
2023-04-29T00:56:51.651Z,98224.31
2023-04-29T00:57:53.670Z,98225.66
2023-04-29T00:58:55.586Z,98226.50
2023-04-29T00:59:59.340Z,98226.50
2023-04-29T01:01:03.798Z,98220.56
2023-04-29T01:02:05.776Z,98231.38
2023-04-29T01:03:09.711Z,98223.28
2023-04-29T01:04:12.152Z,98225.47
2023-04-29T01:05:15.402Z,98228.97
2023-04-29T01:06:32.805Z,98226.69
2023-04-29T01:07:37.900Z,98220.88
2023-04-29T01:09:27.144Z,98227.41
2023-04-29T01:11:12.992Z,98231.69
2023-04-29T01:12:31.526Z,98233.50
2023-04-29T01:13:51.012Z,98231.59
2023-04-29T01:15:11.041Z,98226.78
2023-04-29T01:16:26.718Z,98242.47
2023-04-29T01:17:36.604Z,98242.56
2023-04-29T01:18:54.152Z,98239.56
2023-04-29T01:19:59.094Z,98239.63
2023-04-29T01:21:02.041Z,98239.44
2023-04-29T01:22:03.974Z,98245.13
2023-04-29T01:23:06.128Z,98248.13
2023-04-29T01:24:08.219Z,98244.63
2023-04-29T01:25:10.096Z,98241.44
2023-04-29T01:26:11.987Z,98239.00
2023-04-29T01:27:33.685Z,98249.63
2023-04-29T01:29:20.051Z,98246.56
2023-04-29T01:30:33.743Z,98245.34
2023-04-29T01:32:12.638Z,98249.88
2023-04-29T01:33:48.555Z,98248.34
2023-04-29T01:35:04.195Z,98248.94
2023-04-29T01:36:13.824Z,98246.91
2023-04-29T01:37:35.072Z,98242.00
2023-04-29T01:38:44.846Z,98248.72
2023-04-29T01:40:11.790Z,98243.53
2023-04-29T01:41:23.575Z,98251.19
2023-04-29T01:42:39.703Z,98248.78
2023-04-29T01:43:43.622Z,98246.19
2023-04-29T01:44:49.428Z,98245.41
2023-04-29T01:45:53.970Z,98249.47
2023-04-29T01:46:57.088Z,98250.56
2023-04-29T01:48:01.164Z,98247.34
2023-04-29T01:49:03.228Z,98245.97
2023-04-29T01:50:06.256Z,98248.16
2023-04-29T01:51:08.344Z,98247.34
2023-04-29T01:52:10.521Z,98258.16
2023-04-29T01:53:12.295Z,98246.25
2023-04-29T01:54:14.170Z,98252.75
2023-04-29T01:55:16.129Z,98245.25
2023-04-29T01:56:17.958Z,98250.94
2023-04-29T01:57:20.014Z,98250.16
2023-04-29T01:58:21.881Z,98254.75
2023-04-29T01:59:23.683Z,98239.63
2023-04-29T02:00:25.555Z,98255.53
2023-04-29T02:01:27.715Z,98248.53
2023-04-29T02:02:29.763Z,98250.16
2023-04-29T02:03:32.447Z,98255.53
2023-04-29T02:04:34.671Z,98253.13
2023-04-29T02:05:36.693Z,98259.31
2023-04-29T02:06:38.808Z,98259.59
2023-04-29T02:07:42.301Z,98251.81
2023-04-29T02:08:44.317Z,98249.13
2023-04-29T02:09:46.067Z,98255.59
2023-04-29T02:10:59.322Z,98248.25
2023-04-29T02:12:01.506Z,98250.22
2023-04-29T02:13:03.322Z,98253.72
2023-04-29T02:14:05.594Z,98251.56
2023-04-29T02:15:08.605Z,98245.38
2023-04-29T02:16:13.041Z,98255.88
2023-04-29T02:17:14.934Z,98252.69
2023-04-29T02:18:16.788Z,98249.19
2023-04-29T02:19:18.679Z,98254.88
2023-04-29T02:20:21.558Z,98249.75
2023-04-29T02:21:24.871Z,98252.16
2023-04-29T02:22:26.985Z,98254.06
2023-04-29T02:23:29.505Z,98246.25
2023-04-29T02:24:31.443Z,98250.53
2023-04-29T02:25:33.258Z,98251.63
2023-04-29T02:26:35.601Z,98249.25
2023-04-29T02:27:37.940Z,98250.34
2023-04-29T02:28:40.087Z,98246.84
2023-04-29T02:29:42.202Z,98256.53
2023-04-29T02:30:44.648Z,98250.34
2023-04-29T02:31:46.604Z,98261.41
2023-04-29T02:32:48.876Z,98257.13
2023-04-29T02:33:50.764Z,98254.72
2023-04-29T02:34:53.066Z,98257.41
2023-04-29T02:35:54.928Z,98255.22
2023-04-29T02:36:57.048Z,98257.41
2023-04-29T02:37:58.898Z,98255.00
2023-04-29T02:39:00.833Z,98256.63
2023-04-29T02:40:03.626Z,98256.63
2023-04-29T02:41:05.616Z,98252.31
2023-04-29T02:42:07.861Z,98263.09
2023-04-29T02:43:09.893Z,98251.22
2023-04-29T02:44:12.488Z,98259.59
2023-04-29T02:45:14.797Z,98258.81
2023-04-29T02:46:16.828Z,98256.91
2023-04-29T02:47:18.775Z,98257.19
2023-04-29T02:48:20.865Z,98256.91
2023-04-29T02:49:22.890Z,98253.41
2023-04-29T02:50:25.631Z,98253.41
2023-04-29T02:51:28.069Z,98256.13
2023-04-29T02:52:29.900Z,98258.81
2023-04-29T02:53:32.038Z,98254.47
2023-04-29T02:54:33.865Z,98253.41
2023-04-29T02:55:35.670Z,98251.00
2023-04-29T02:56:37.812Z,98251.28
2023-04-29T02:57:40.760Z,98255.88
2023-04-29T02:58:42.562Z,98252.09
2023-04-29T02:59:44.428Z,98255.06
2023-04-29T03:00:46.473Z,98253.97
2023-04-29T03:01:48.518Z,98254.28
2023-04-29T03:02:50.523Z,98252.38
2023-04-29T03:03:53.254Z,98255.06
2023-04-29T03:04:55.460Z,98257.78
2023-04-29T03:05:57.382Z,98257.78
2023-04-29T03:06:59.419Z,98265.84
2023-04-29T03:08:01.880Z,98255.97
2023-04-29T03:09:04.029Z,98258.88
2023-04-29T03:10:07.164Z,98263.75
2023-04-29T03:11:08.940Z,98266.75
2023-04-29T03:12:11.928Z,98270.25
2023-04-29T03:13:14.244Z,98271.03
2023-04-29T03:14:16.417Z,98264.84
2023-04-29T03:15:18.209Z,98275.13
2023-04-29T03:16:20.092Z,98268.13
2023-04-29T03:17:21.953Z,98263.00
2023-04-29T03:18:24.038Z,98268.13
2023-04-29T03:19:25.943Z,98264.09
2023-04-29T03:20:28.347Z,98270.28
2023-04-29T03:21:30.165Z,98271.38
2023-04-29T03:22:31.989Z,98258.72
2023-04-29T03:23:33.807Z,98262.50
2023-04-29T03:24:36.104Z,98254.72
2023-04-29T03:25:37.975Z,98258.22
2023-04-29T03:26:40.391Z,98266.28
2023-04-29T03:27:42.493Z,98264.69
2023-04-29T03:28:44.291Z,98265.78
2023-04-29T03:29:46.548Z,98264.19
2023-04-29T03:30:48.370Z,98267.69
2023-04-29T03:31:50.284Z,98254.50
2023-04-29T03:32:52.392Z,98264.78
2023-04-29T03:33:54.346Z,98260.97
2023-04-29T03:34:57.092Z,98270.97
2023-04-29T03:35:58.915Z,98260.44
2023-04-29T03:37:01.497Z,98272.84
2023-04-29T03:38:04.744Z,98272.03
2023-04-29T03:39:08.179Z,98266.63
2023-04-29T03:40:11.326Z,98268.03
2023-04-29T03:41:13.742Z,98264.53
2023-04-29T03:42:15.888Z,98263.72
2023-04-29T03:43:18.277Z,98261.34
2023-04-29T03:44:20.438Z,98264.81
2023-04-29T03:45:22.313Z,98264.81
2023-04-29T03:46:24.535Z,98264.03
2023-04-29T03:47:26.483Z,98265.13
2023-04-29T03:48:28.286Z,98266.22
2023-04-29T03:49:30.125Z,98272.41
2023-04-29T03:50:32.268Z,98261.91
2023-04-29T03:51:34.282Z,98274.59
2023-04-29T03:52:36.646Z,98265.41
2023-04-29T03:53:38.787Z,98265.97
2023-04-29T03:54:40.876Z,98267.06
2023-04-29T03:55:42.757Z,98272.19
2023-04-29T03:56:44.919Z,98271.38
2023-04-29T03:57:46.729Z,98270.84
2023-04-29T03:58:49.377Z,98271.38
2023-04-29T03:59:51.479Z,98275.94
2023-04-29T04:00:53.729Z,98278.94
2023-04-29T04:01:55.767Z,98276.53
2023-04-29T04:02:59.345Z,98275.44
2023-04-29T04:04:01.726Z,98276.53
2023-04-29T04:05:04.053Z,98278.13
2023-04-29T04:06:05.920Z,98280.31
2023-04-29T04:07:07.896Z,98281.13
2023-04-29T04:08:10.945Z,98283.03
2023-04-29T04:09:12.957Z,98278.72
2023-04-29T04:10:15.116Z,98282.00
2023-04-29T04:11:17.200Z,98280.91
2023-04-29T04:12:19.108Z,98287.09
2023-04-29T04:13:21.039Z,98281.50
2023-04-29T04:14:22.949Z,98275.28
2023-04-29T04:15:25.239Z,98286.88
2023-04-29T04:16:27.161Z,98294.97
2023-04-29T04:17:29.005Z,98284.44
2023-04-29T04:18:31.200Z,98289.56
2023-04-29T04:19:34.510Z,98286.34
2023-04-29T04:20:39.272Z,98293.06
2023-04-29T04:21:41.375Z,98294.13
2023-04-29T04:22:43.304Z,98296.59
2023-04-29T04:23:45.360Z,98299.81
2023-04-29T04:24:47.231Z,98300.91
2023-04-29T04:25:49.939Z,98300.06
2023-04-29T04:26:52.043Z,98301.16
2023-04-29T04:27:54.460Z,98304.66
2023-04-29T04:28:56.371Z,98303.84
2023-04-29T04:29:58.397Z,98306.56
2023-04-29T04:31:01.322Z,98301.47
2023-04-29T04:32:03.430Z,98308.44
2023-04-29T04:33:06.734Z,98306.28
2023-04-29T04:34:08.647Z,98309.25
2023-04-29T04:35:10.719Z,98306.56
2023-04-29T04:36:12.627Z,98302.78
2023-04-29T04:37:14.527Z,98312.75
2023-04-29T04:38:17.345Z,98313.28
2023-04-29T04:39:19.428Z,98313.28
2023-04-29T04:40:22.008Z,98310.28
2023-04-29T04:41:24.033Z,98323.22
2023-04-29T04:42:25.774Z,98313.25
2023-04-29T04:43:27.635Z,98316.72
2023-04-29T04:44:30.382Z,98317.25
2023-04-29T04:45:32.284Z,98318.53
2023-04-29T04:46:34.495Z,98324.22
2023-04-29T04:47:36.925Z,98321.25
2023-04-29T04:48:38.948Z,98322.84
2023-04-29T04:49:40.876Z,98321.75
2023-04-29T04:50:43.349Z,98316.09
2023-04-29T04:51:45.912Z,98323.09
2023-04-29T04:52:47.782Z,98327.91
2023-04-29T04:53:49.636Z,98329.50
2023-04-29T04:54:51.845Z,98331.38
2023-04-29T04:55:53.787Z,98324.91
2023-04-29T04:56:55.790Z,98320.31
2023-04-29T04:57:58.555Z,98330.00
2023-04-29T04:59:00.435Z,98322.44
2023-04-29T05:00:04.032Z,98322.44
2023-04-29T05:01:08.186Z,98326.47
2023-04-29T05:02:10.212Z,98331.56
2023-04-29T05:03:12.310Z,98329.97
2023-04-29T05:04:15.544Z,98330.75
2023-04-29T05:05:17.607Z,98327.78
2023-04-29T05:06:19.931Z,98336.38
2023-04-29T05:07:21.932Z,98333.97
2023-04-29T05:08:24.519Z,98333.97
2023-04-29T05:09:26.901Z,98337.16
2023-04-29T05:10:29.178Z,98338.75
2023-04-29T05:11:31.294Z,98337.66
2023-04-29T05:12:35.279Z,98341.16
2023-04-29T05:13:37.423Z,98347.34
2023-04-29T05:14:39.333Z,98348.16
2023-04-29T05:15:41.239Z,98348.44
2023-04-29T05:16:44.980Z,98354.38
2023-04-29T05:17:46.899Z,98357.59
2023-04-29T05:18:49.001Z,98362.97
2023-04-29T05:19:51.311Z,98355.97
2023-04-29T05:20:53.262Z,98362.97
2023-04-29T05:21:55.330Z,98365.38
2023-04-29T05:22:57.128Z,98360.28
2023-04-29T05:23:58.945Z,98367.28
2023-04-29T05:25:03.307Z,98372.66
2023-04-29T05:26:05.241Z,98374.25
2023-04-29T05:27:07.368Z,98372.38
2023-04-29T05:28:09.270Z,98373.47
2023-04-29T05:29:12.092Z,98372.66
2023-04-29T05:30:14.033Z,98376.97
2023-04-29T05:31:15.982Z,98376.97
2023-04-29T05:32:18.213Z,98382.34
2023-04-29T05:33:20.698Z,98376.16
2023-04-29T05:34:22.800Z,98373.47
2023-04-29T05:35:25.488Z,98380.75
2023-04-29T05:36:28.032Z,98388.53
2023-04-29T05:37:31.968Z,98383.44
2023-04-29T05:38:33.961Z,98382.66
2023-04-29T05:39:36.137Z,98383.44
2023-04-29T05:40:38.432Z,98392.34
2023-04-29T05:41:40.356Z,98386.72
2023-04-29T05:42:42.931Z,98390.72
2023-04-29T05:43:44.740Z,98389.94
2023-04-29T05:44:46.992Z,98388.03
2023-04-29T05:45:49.352Z,98396.13
2023-04-29T05:46:52.053Z,98398.00
2023-04-29T05:47:54.284Z,98396.66
2023-04-29T05:48:56.495Z,98397.50
2023-04-29T05:49:58.523Z,98401.81
2023-04-29T05:51:00.877Z,98404.50
2023-04-29T05:52:06.398Z,98402.91
2023-04-29T05:53:08.299Z,98399.91
2023-04-29T05:54:10.446Z,98408.28
2023-04-29T05:55:12.394Z,98409.34
2023-04-29T05:56:14.357Z,98410.97
2023-04-29T05:57:16.918Z,98413.69
2023-04-29T05:58:18.746Z,98405.84
2023-04-29T05:59:20.662Z,98405.84
2023-04-29T06:00:22.671Z,98409.34
2023-04-29T06:01:24.716Z,98412.84
2023-04-29T06:02:27.637Z,98406.94
2023-04-29T06:03:30.099Z,98410.44
2023-04-29T06:04:32.165Z,98407.75
2023-04-29T06:05:35.254Z,98410.44
2023-04-29T06:06:37.825Z,98416.91
2023-04-29T06:07:40.218Z,98421.22
2023-04-29T06:08:42.373Z,98418.00
2023-04-29T06:09:44.615Z,98418.00
2023-04-29T06:10:46.724Z,98415.31
2023-04-29T06:11:48.745Z,98425.00
2023-04-29T06:12:52.015Z,98418.81
2023-04-29T06:13:53.841Z,98425.31
2023-04-29T06:14:56.178Z,98423.69
2023-04-29T06:15:58.435Z,98428.28
2023-04-29T06:17:00.688Z,98431.78
2023-04-29T06:18:02.591Z,98430.19
2023-04-29T06:19:04.519Z,98426.69
2023-04-29T06:20:07.645Z,98428.56
2023-04-29T06:21:09.618Z,98428.56
2023-04-29T06:22:11.610Z,98434.75
2023-04-29T06:23:13.826Z,98433.16
2023-04-29T06:24:15.988Z,98438.25
2023-04-29T06:25:18.112Z,98437.47
2023-04-29T06:26:20.996Z,98443.16
2023-04-29T06:27:22.847Z,98435.56
2023-04-29T06:28:24.684Z,98441.75
2023-04-29T06:29:26.759Z,98438.56
2023-04-29T06:30:28.602Z,98453.06
2023-04-29T06:31:30.489Z,98447.94
2023-04-29T06:32:32.404Z,98448.75
2023-04-29T06:33:34.378Z,98450.66
2023-04-29T06:34:37.158Z,98449.84
2023-04-29T06:35:41.977Z,98450.66
2023-04-29T06:36:43.901Z,98451.75
2023-04-29T06:37:46.004Z,98457.94
2023-04-29T06:38:47.899Z,98457.13
2023-04-29T06:39:50.206Z,98456.31
2023-04-29T06:40:52.017Z,98460.13
2023-04-29T06:41:53.893Z,98457.13
2023-04-29T06:42:55.641Z,98461.72
2023-04-29T06:43:57.566Z,98450.94
2023-04-29T06:44:59.892Z,98460.34
2023-04-29T06:46:02.006Z,98458.72
2023-04-29T06:47:04.218Z,98460.34
2023-04-29T06:48:06.332Z,98456.03
2023-04-29T06:49:08.732Z,98459.53
2023-04-29T06:50:10.898Z,98463.31
2023-04-29T06:51:12.832Z,98463.03
2023-04-29T06:52:15.054Z,98460.34
2023-04-29T06:53:16.868Z,98461.94
2023-04-29T06:54:18.669Z,98465.72
2023-04-29T06:55:20.954Z,98463.03
2023-04-29T06:56:23.947Z,98464.94
2023-04-29T06:57:25.871Z,98466.00
2023-04-29T06:58:27.656Z,98471.63
2023-04-29T06:59:29.507Z,98471.13
2023-04-29T07:00:31.985Z,98471.13
2023-04-29T07:01:34.395Z,98471.91
2023-04-29T07:02:39.379Z,98473.00
2023-04-29T07:03:41.446Z,98474.63
2023-04-29T07:04:43.737Z,98480.28
2023-04-29T07:05:46.266Z,98480.59
2023-04-29T07:06:48.247Z,98482.19
2023-04-29T07:07:50.036Z,98483.00
2023-04-29T07:08:53.236Z,98481.09
2023-04-29T07:09:56.263Z,98482.19
2023-04-29T07:10:59.686Z,98488.38
2023-04-29T07:12:03.883Z,98486.47
2023-04-29T07:13:06.033Z,98491.88
2023-04-29T07:14:08.769Z,98489.47
2023-04-29T07:15:10.952Z,98499.44
2023-04-29T07:16:21.208Z,98495.09
2023-04-29T07:17:23.146Z,98498.88
2023-04-29T07:18:25.338Z,98493.78
2023-04-29T07:19:27.540Z,98501.06
2023-04-29T07:20:29.741Z,98504.56
2023-04-29T07:21:31.672Z,98501.06
2023-04-29T07:22:33.639Z,98498.66
2023-04-29T07:23:35.727Z,98504.03
2023-04-29T07:24:37.692Z,98501.84
2023-04-29T07:25:39.558Z,98503.75
2023-04-29T07:26:45.032Z,98502.66
2023-04-29T07:27:47.827Z,98505.63
2023-04-29T07:28:50.330Z,98504.84
2023-04-29T07:29:52.330Z,98509.94
2023-04-29T07:30:54.325Z,98510.22
2023-04-29T07:31:56.183Z,98508.84
2023-04-29T07:32:58.100Z,98512.63
2023-04-29T07:34:00.278Z,98512.13
2023-04-29T07:35:02.474Z,98513.72
2023-04-29T07:36:04.807Z,98518.31
2023-04-29T07:37:06.682Z,98514.53
2023-04-29T07:38:08.605Z,98514.00
2023-04-29T07:39:12.650Z,98519.63
2023-04-29T07:40:14.589Z,98521.53
2023-04-29T07:41:16.678Z,98521.00
2023-04-29T07:42:18.728Z,98526.13
2023-04-29T07:43:21.559Z,98524.50
2023-04-29T07:44:23.558Z,98521.81
2023-04-29T07:45:25.452Z,98527.50
2023-04-29T07:46:27.428Z,98528.00
2023-04-29T07:47:29.415Z,98520.50
2023-04-29T07:48:31.490Z,98523.69
2023-04-29T07:49:33.331Z,98526.41
2023-04-29T07:50:39.052Z,98530.19
2023-04-29T07:51:44.209Z,98537.69
2023-04-29T07:52:46.139Z,98531.78
2023-04-29T07:53:48.062Z,98530.19
2023-04-29T07:54:49.938Z,98529.38
2023-04-29T07:55:51.816Z,98537.47
2023-04-29T07:56:53.897Z,98531.78
2023-04-29T07:57:57.538Z,98535.56
2023-04-29T07:59:01.377Z,98534.78
2023-04-29T08:00:03.628Z,98542.56
2023-04-29T08:01:12.219Z,98545.56
2023-04-29T08:02:16.634Z,98546.34
2023-04-29T08:03:19.585Z,98550.13
2023-04-29T08:04:21.938Z,98542.84
2023-04-29T08:05:24.865Z,98548.25
2023-04-29T08:06:27.369Z,98544.75
2023-04-29T08:07:29.568Z,98545.56
2023-04-29T08:08:32.036Z,98552.84
2023-04-29T08:09:34.064Z,98546.63
2023-04-29T08:10:41.059Z,98551.75
2023-04-29T08:11:43.797Z,98547.44
2023-04-29T08:12:49.588Z,98550.66
2023-04-29T08:13:51.944Z,98553.63
2023-04-29T08:14:54.090Z,98555.53
2023-04-29T08:15:56.354Z,98553.94
2023-04-29T08:16:58.343Z,98552.28
2023-04-29T08:18:00.569Z,98548.53
2023-04-29T08:19:02.673Z,98554.72
2023-04-29T08:20:05.302Z,98553.38
2023-04-29T08:21:07.387Z,98553.13
2023-04-29T08:22:11.202Z,98551.50
2023-04-29T08:23:13.350Z,98550.44
2023-04-29T08:24:15.607Z,98555.81
2023-04-29T08:25:17.750Z,98543.16
2023-04-29T08:26:19.949Z,98550.69
2023-04-29T08:27:21.954Z,98557.41
2023-04-29T08:28:23.759Z,98554.19
2023-04-29T08:29:25.869Z,98560.13
2023-04-29T08:30:28.503Z,98553.13
2023-04-29T08:31:30.663Z,98552.28
2023-04-29T08:32:34.231Z,98561.22
2023-04-29T08:33:37.041Z,98554.97
2023-04-29T08:34:39.050Z,98559.31
2023-04-29T08:35:41.551Z,98562.81
2023-04-29T08:36:43.447Z,98565.50
2023-04-29T08:37:45.326Z,98559.84
2023-04-29T08:38:48.917Z,98569.28
2023-04-29T08:39:50.734Z,98561.22
2023-04-29T08:40:52.864Z,98561.72
2023-04-29T08:41:56.450Z,98562.00
2023-04-29T08:43:00.184Z,98567.91
2023-04-29T08:44:02.498Z,98568.72
2023-04-29T08:45:06.160Z,98566.31
2023-04-29T08:46:08.500Z,98571.69
2023-04-29T08:47:10.498Z,98563.63
2023-04-29T08:48:13.141Z,98569.22
2023-04-29T08:49:15.066Z,98565.22
2023-04-29T08:50:18.083Z,98563.63
2023-04-29T08:51:19.969Z,98566.03
2023-04-29T08:52:21.805Z,98567.91
2023-04-29T08:53:24.021Z,98569.53
2023-04-29T08:54:26.469Z,98568.72
2023-04-29T08:55:28.325Z,98570.31
2023-04-29T08:56:31.599Z,98566.81
2023-04-29T08:57:40.348Z,98568.94
2023-04-29T08:58:43.470Z,98564.66
2023-04-29T08:59:45.796Z,98572.72
2023-04-29T09:00:49.375Z,98567.34
2023-04-29T09:01:54.138Z,98568.94
2023-04-29T09:02:59.850Z,98570.84
2023-04-29T09:04:29.156Z,98569.16
2023-04-29T09:05:34.230Z,98577.53
2023-04-29T09:06:36.392Z,98575.13
2023-04-29T09:07:41.051Z,98571.13
2023-04-29T09:08:43.253Z,98577.31
2023-04-29T09:09:45.393Z,98572.22
2023-04-29T09:10:48.092Z,98576.81
2023-04-29T09:11:50.435Z,98584.59
2023-04-29T09:12:56.504Z,98579.22
2023-04-29T09:14:01.633Z,98578.13
2023-04-29T09:15:04.513Z,98574.09
2023-04-29T09:16:13.042Z,98574.63
2023-04-29T09:17:16.714Z,98580.00
2023-04-29T09:18:51.305Z,98570.47
2023-04-29T09:19:53.293Z,98582.13
2023-04-29T09:20:55.132Z,98582.72
2023-04-29T09:21:57.588Z,98586.22
2023-04-29T09:23:04.730Z,98594.00
2023-04-29T09:24:06.637Z,98587.28
2023-04-29T09:25:15.322Z,98584.81
2023-04-29T09:26:17.697Z,98581.91
2023-04-29T09:27:29.413Z,98588.31
2023-04-29T09:28:31.893Z,98580.31
2023-04-29T09:29:34.901Z,98586.50
2023-04-29T09:30:47.388Z,98588.31
2023-04-29T09:31:49.752Z,98584.31
2023-04-29T09:33:21.041Z,98591.72
2023-04-29T09:34:36.007Z,98589.91
2023-04-29T09:35:41.144Z,98596.13
2023-04-29T09:36:51.064Z,98592.63
2023-04-29T09:38:07.689Z,98594.81
2023-04-29T09:39:20.401Z,98593.72
2023-04-29T09:40:43.520Z,98597.19
2023-04-29T09:41:55.523Z,98600.16
2023-04-29T09:42:58.587Z,98602.91
2023-04-29T09:44:05.715Z,98601.81
2023-04-29T09:45:09.454Z,98605.06
2023-04-29T09:46:13.932Z,98602.91
2023-04-29T09:47:15.974Z,98597.78
2023-04-29T09:48:18.624Z,98601.56
2023-04-29T09:49:37.360Z,98602.34
2023-04-29T09:50:42.248Z,98604.50
2023-04-29T09:51:55.033Z,98602.88
2023-04-29T09:52:57.975Z,98608.81
2023-04-29T09:54:28.667Z,98600.91
2023-04-29T09:55:31.984Z,98598.81
2023-04-29T09:56:53.588Z,98604.69
2023-04-29T09:57:56.292Z,98602.34
2023-04-29T09:59:09.413Z,98609.06
2023-04-29T10:00:13.313Z,98608.00
2023-04-29T10:01:19.673Z,98606.69
2023-04-29T10:02:23.850Z,98605.59
2023-04-29T10:03:32.201Z,98615.00
2023-04-29T10:04:40.452Z,98623.91
2023-04-29T10:05:42.529Z,98623.06
2023-04-29T10:06:48.763Z,98619.88
2023-04-29T10:07:51.892Z,98622.03
2023-04-29T10:08:53.805Z,98624.75
2023-04-29T10:09:56.990Z,98629.84
2023-04-29T10:11:02.471Z,98622.28
2023-04-29T10:12:07.818Z,98623.91
2023-04-29T10:13:09.783Z,98627.66
2023-04-29T10:14:17.155Z,98629.31
2023-04-29T10:15:48.150Z,98623.00
2023-04-29T10:17:14.431Z,98621.09
2023-04-29T10:18:21.475Z,98616.84
2023-04-29T10:19:48.143Z,98629.47
2023-04-29T10:20:52.856Z,98620.13
2023-04-29T10:22:00.664Z,98619.59
2023-04-29T10:23:04.227Z,98624.97
2023-04-29T10:24:08.134Z,98619.88
2023-04-29T10:25:12.122Z,98622.84
2023-04-29T10:26:18.737Z,98619.06
2023-04-29T10:27:24.901Z,98624.44
2023-04-29T10:28:32.678Z,98619.06
2023-04-29T10:29:37.648Z,98619.06
2023-04-29T10:30:43.197Z,98622.84
2023-04-29T10:31:47.116Z,98619.06
2023-04-29T10:32:52.408Z,98625.25
2023-04-29T10:33:59.456Z,98623.91
2023-04-29T10:35:03.804Z,98626.34
2023-04-29T10:36:06.255Z,98620.16
2023-04-29T10:37:12.562Z,98626.06
2023-04-29T10:38:33.496Z,98630.34
2023-04-29T10:40:08.959Z,98622.75
2023-04-29T10:41:26.832Z,98621.97
2023-04-29T10:42:46.535Z,98628.16
2023-04-29T10:43:48.795Z,98625.78
2023-04-29T10:45:32.764Z,98621.66
2023-04-29T10:46:34.785Z,98609.34
2023-04-29T10:47:36.624Z,98615.56
2023-04-29T10:48:38.602Z,98620.72
2023-04-29T10:49:41.067Z,98620.97
2023-04-29T10:50:50.213Z,98617.97
2023-04-29T10:51:52.027Z,98618.25
2023-04-29T10:52:55.958Z,98622.84
2023-04-29T10:54:20.462Z,98618.47
2023-04-29T10:55:25.129Z,98612.84
2023-04-29T10:56:56.143Z,98610.88
2023-04-29T10:57:58.373Z,98610.94
2023-04-29T10:59:00.268Z,98613.13
2023-04-29T11:00:04.939Z,98614.75
2023-04-29T11:01:08.290Z,98605.31
2023-04-29T11:02:14.938Z,98606.66
2023-04-29T11:03:50.989Z,98607.59
2023-04-29T11:05:15.776Z,98601.41
2023-04-29T11:06:17.771Z,98606.59
2023-04-29T11:07:29.999Z,98600.63
2023-04-29T11:08:31.866Z,98600.69
2023-04-29T11:09:37.370Z,98604.19
2023-04-29T11:10:43.983Z,98598.22
2023-04-29T11:11:46.334Z,98598.00
2023-04-29T11:12:48.235Z,98600.69
2023-04-29T11:13:50.788Z,98604.19
2023-04-29T11:14:54.692Z,98600.69
2023-04-29T11:16:07.465Z,98602.22
2023-04-29T11:17:15.603Z,98601.44
2023-04-29T11:18:18.101Z,98609.00
2023-04-29T11:19:21.199Z,98601.72
2023-04-29T11:20:23.245Z,98607.91
2023-04-29T11:21:25.267Z,98598.22
2023-04-29T11:22:32.295Z,98610.88
2023-04-29T11:23:42.252Z,98600.06
2023-04-29T11:24:51.028Z,98608.41
2023-04-29T11:25:53.114Z,98606.56
2023-04-29T11:27:04.219Z,98601.16
2023-04-29T11:28:07.644Z,98602.78
2023-04-29T11:29:10.662Z,98603.03
2023-04-29T11:30:13.902Z,98604.66
2023-04-29T11:31:15.809Z,98600.88
2023-04-29T11:32:22.938Z,98601.09
2023-04-29T11:33:34.960Z,98599.50
2023-04-29T11:34:36.864Z,98602.19
2023-04-29T11:35:41.943Z,98599.50
2023-04-29T11:36:44.867Z,98594.13
2023-04-29T11:37:47.839Z,98597.31
2023-04-29T11:38:50.153Z,98600.31
2023-04-29T11:39:58.072Z,98606.22
2023-04-29T11:41:00.898Z,98601.63
2023-04-29T11:42:07.035Z,98605.94
2023-04-29T11:43:09.167Z,98604.31
2023-04-29T11:44:12.517Z,98611.31
2023-04-29T11:45:17.327Z,98604.31
2023-04-29T11:46:19.691Z,98605.94
2023-04-29T11:47:22.358Z,98602.44
2023-04-29T11:48:26.746Z,98609.44
2023-04-29T11:49:37.397Z,98600.00
2023-04-29T11:50:42.492Z,98602.41
2023-04-29T11:51:44.423Z,98601.34
2023-04-29T11:52:50.207Z,98601.03
2023-04-29T11:53:52.663Z,98601.59
2023-04-29T11:54:54.774Z,98603.75
2023-04-29T11:55:57.313Z,98603.75
2023-04-29T11:56:59.488Z,98594.84
2023-04-29T11:58:01.763Z,98595.66
2023-04-29T11:59:08.040Z,98608.88
2023-04-29T12:00:12.877Z,98598.09
2023-04-29T12:01:15.110Z,98607.28
2023-04-29T12:02:17.271Z,98606.19
2023-04-29T12:03:21.979Z,98609.38
2023-04-29T12:04:24.266Z,98614.78
2023-04-29T12:05:27.293Z,98608.88
2023-04-29T12:06:30.366Z,98609.69
2023-04-29T12:07:32.342Z,98613.19
2023-04-29T12:08:34.968Z,98615.88
2023-04-29T12:09:46.864Z,98611.25
2023-04-29T12:10:49.933Z,98616.38
2023-04-29T12:11:53.192Z,98609.09
2023-04-29T12:12:55.219Z,98621.78
2023-04-29T12:13:58.092Z,98608.59
2023-04-29T12:15:00.031Z,98616.38
2023-04-29T12:16:02.678Z,98619.88
2023-04-29T12:17:06.914Z,98615.59
2023-04-29T12:18:09.710Z,98617.19
2023-04-29T12:19:12.209Z,98624.47
2023-04-29T12:20:14.687Z,98619.09
2023-04-29T12:21:17.064Z,98616.38
2023-04-29T12:22:20.581Z,98621.78
2023-04-29T12:23:26.752Z,98616.94
2023-04-29T12:24:29.086Z,98615.84
2023-04-29T12:25:33.057Z,98622.03
2023-04-29T12:26:35.605Z,98621.25
2023-04-29T12:27:44.246Z,98613.41
2023-04-29T12:28:46.274Z,98618.25
2023-04-29T12:29:48.293Z,98615.84
2023-04-29T12:30:54.361Z,98615.56
2023-04-29T12:31:59.140Z,98612.31
2023-04-29T12:33:02.648Z,98610.97
2023-04-29T12:34:08.334Z,98612.06
2023-04-29T12:35:18.625Z,98617.13